Time;durP1;ratioP1;P1;durP2;ratioP2;P2;SDS_P1;SDS_P2;PMS_P1;PMS_P2;Temp;Humidity;BMP_temperature;BMP_pressure;BME280_temperature;BME280_humidity;BME280_pressure;Samples;Min_cycle;Max_cycle;Signal;HPM_P1;HPM_P2
2021/09/08 00:02:06;;;;;;;28.38;15.63;;;21.90;83.80;;;;;;4947991;28;20201;-69
2021/09/08 00:04:32;;;;;;;25.38;16.13;;;21.80;83.80;;;;;;4962658;28;20698;-69
2021/09/08 00:06:57;;;;;;;21.38;15.20;;;21.80;83.90;;;;;;4966167;28;20244;-69
2021/09/08 00:09:23;;;;;;;21.58;15.32;;;21.80;83.90;;;;;;4966147;28;20189;-70
2021/09/08 00:11:49;;;;;;;24.13;15.30;;;21.80;84.00;;;;;;4945216;28;20225;-72
2021/09/08 00:14:15;;;;;;;24.15;14.77;;;21.70;83.90;;;;;;4963413;28;20227;-72
2021/09/08 00:16:41;;;;;;;23.15;15.07;;;21.70;84.10;;;;;;4963320;28;20306;-71
2021/09/08 00:19:08;;;;;;;28.08;15.75;;;21.70;84.30;;;;;;4945874;28;20218;-68
2021/09/08 00:21:34;;;;;;;23.15;16.13;;;21.60;84.50;;;;;;4966821;28;20249;-69
2021/09/08 00:24:00;;;;;;;20.92;14.60;;;21.60;84.70;;;;;;4963479;28;20585;-69
2021/09/08 00:26:25;;;;;;;24.13;14.88;;;21.50;85.50;;;;;;4964006;28;20202;-70
2021/09/08 00:28:51;;;;;;;24.15;14.85;;;21.40;84.90;;;;;;4965503;28;20185;-70
2021/09/08 00:31:17;;;;;;;21.80;14.60;;;21.40;85.00;;;;;;4967466;28;20193;-70
2021/09/08 00:33:44;;;;;;;22.52;14.77;;;21.40;85.10;;;;;;4951971;28;20301;-70
2021/09/08 00:36:10;;;;;;;25.80;14.70;;;21.40;85.20;;;;;;4967457;28;20193;-71
2021/09/08 00:38:36;;;;;;;19.75;13.95;;;21.30;85.20;;;;;;4966643;28;20209;-71
2021/09/08 00:41:02;;;;;;;25.70;15.00;;;21.30;85.20;;;;;;4966558;28;20194;-71
2021/09/08 00:43:28;;;;;;;26.67;14.98;;;21.30;85.30;;;;;;4965247;28;20638;-69
2021/09/08 00:45:56;;;;;;;19.77;14.10;;;21.30;85.40;;;;;;4966206;28;20209;-70
2021/09/08 00:48:23;;;;;;;25.10;14.80;;;21.20;85.40;;;;;;4967882;28;20212;-70
2021/09/08 00:50:50;;;;;;;21.95;13.98;;;21.20;85.40;;;;;;4967354;28;20523;-69
2021/09/08 00:53:18;;;;;;;26.00;15.20;;;21.20;85.50;;;;;;4963767;28;20663;-69
2021/09/08 00:55:45;;;;;;;24.08;15.00;;;21.10;85.50;;;;;;4963220;28;20178;-69
2021/09/08 00:58:15;;;;;;;22.65;15.20;;;21.10;85.60;;;;;;4963338;28;20198;-70
2021/09/08 01:00:42;;;;;;;22.60;14.93;;;21.10;85.70;;;;;;4962446;28;20273;-71
2021/09/08 01:03:09;;;;;;;22.20;13.90;;;21.10;85.80;;;;;;4963289;28;20237;-70
2021/09/08 01:05:36;;;;;;;24.13;15.98;;;21.10;85.90;;;;;;4963390;28;20655;-69
2021/09/08 01:08:06;;;;;;;24.90;14.23;;;21.00;85.90;;;;;;4965909;28;20194;-69
2021/09/08 01:10:33;;;;;;;23.48;14.13;;;21.00;86.00;;;;;;4962535;28;20204;-69
2021/09/08 01:12:59;;;;;;;23.35;14.60;;;21.00;86.00;;;;;;4966941;28;20194;-71
2021/09/08 01:15:25;;;;;;;25.10;15.07;;;20.90;86.00;;;;;;4962767;28;20196;-70
2021/09/08 01:17:51;;;;;;;22.35;15.32;;;20.90;86.10;;;;;;4960514;28;20197;-70
2021/09/08 01:20:17;;;;;;;26.92;15.20;;;20.90;86.20;;;;;;4962724;28;20546;-70
2021/09/08 01:22:51;;;;;;;23.08;15.30;;;20.90;86.20;;;;;;4962101;28;20189;-70
2021/09/08 01:25:22;;;;;;;22.58;15.35;;;20.80;86.20;;;;;;4945100;28;20300;-69
2021/09/08 01:27:51;;;;;;;23.38;14.65;;;20.80;86.20;;;;;;4963193;28;20736;-69
2021/09/08 01:30:21;;;;;;;25.73;15.45;;;20.80;86.30;;;;;;4963102;28;20277;-69
2021/09/08 01:32:48;;;;;;;32.63;15.57;;;20.80;86.30;;;;;;4962391;28;20182;-70
2021/09/08 01:35:15;;;;;;;22.35;14.30;;;20.80;86.40;;;;;;4962909;28;20209;-69
2021/09/08 01:37:41;;;;;;;23.73;14.70;;;20.70;86.40;;;;;;4966547;28;20310;-69
2021/09/08 01:40:07;;;;;;;22.10;14.63;;;20.70;86.40;;;;;;4962268;28;20205;-69
2021/09/08 01:42:32;;;;;;;24.67;15.25;;;20.70;86.30;;;;;;4946128;28;20198;-68
2021/09/08 01:44:58;;;;;;;21.38;14.88;;;20.70;86.30;;;;;;4963814;28;20214;-70
2021/09/08 01:47:24;;;;;;;21.83;14.55;;;20.70;86.30;;;;;;4965702;28;20197;-69
2021/09/08 01:49:49;;;;;;;21.95;14.90;;;20.60;86.20;;;;;;4942912;28;20201;-69
2021/09/08 01:52:15;;;;;;;21.38;14.40;;;20.60;86.30;;;;;;4962552;28;20197;-69
2021/09/08 01:54:41;;;;;;;22.05;14.00;;;20.60;86.40;;;;;;4962316;28;20208;-69
2021/09/08 01:57:06;;;;;;;20.58;13.73;;;20.50;86.50;;;;;;4965236;28;20268;-68
2021/09/08 01:59:32;;;;;;;22.42;13.95;;;20.60;86.60;;;;;;4944911;28;20261;-69
2021/09/08 02:01:58;;;;;;;24.35;14.50;;;20.50;86.80;;;;;;4944451;28;20190;-69
2021/09/08 02:04:24;;;;;;;25.05;14.18;;;20.50;86.90;;;;;;4965829;28;20217;-69
2021/09/08 02:06:51;;;;;;;20.45;13.82;;;20.50;86.90;;;;;;4965408;28;20212;-69
2021/09/08 02:09:18;;;;;;;24.70;14.88;;;20.40;86.80;;;;;;4964417;28;20627;-70
2021/09/08 02:11:44;;;;;;;22.75;14.30;;;20.40;86.90;;;;;;4964332;28;20924;-69
2021/09/08 02:14:12;;;;;;;22.17;13.52;;;20.40;87.10;;;;;;4964501;28;20549;-70
2021/09/08 02:16:38;;;;;;;22.30;14.32;;;20.40;87.30;;;;;;4965121;28;20190;-70
2021/09/08 02:19:03;;;;;;;20.55;13.75;;;20.40;87.50;;;;;;4966288;28;20193;-71
2021/09/08 02:21:29;;;;;;;22.05;13.80;;;20.30;87.70;;;;;;4949794;28;20986;-70
2021/09/08 02:23:55;;;;;;;22.80;14.18;;;20.30;87.90;;;;;;4947893;28;20650;-70
2021/09/08 02:26:21;;;;;;;21.63;14.57;;;20.30;88.20;;;;;;4962513;28;20229;-71
2021/09/08 02:28:48;;;;;;;19.90;13.82;;;20.20;88.50;;;;;;4944118;28;20631;-70
2021/09/08 02:31:13;;;;;;;25.00;14.63;;;20.20;88.80;;;;;;4962096;28;20353;-70
2021/09/08 02:33:39;;;;;;;21.20;13.75;;;20.20;89.00;;;;;;4962567;28;20648;-71
2021/09/08 02:36:05;;;;;;;20.75;15.27;;;20.10;89.20;;;;;;4961954;28;20677;-71
2021/09/08 02:38:32;;;;;;;20.15;14.20;;;20.10;89.50;;;;;;4964962;28;20213;-70
2021/09/08 02:41:00;;;;;;;21.52;13.85;;;20.10;89.60;;;;;;4968164;28;20189;-70
2021/09/08 02:43:28;;;;;;;22.38;14.15;;;20.10;89.70;;;;;;4964005;28;20225;-70
2021/09/08 02:45:54;;;;;;;21.00;14.65;;;20.10;89.70;;;;;;4963397;28;21048;-70
2021/09/08 02:48:19;;;;;;;22.17;13.90;;;20.10;89.80;;;;;;4962119;28;20190;-70
2021/09/08 02:50:45;;;;;;;24.02;14.77;;;20.00;90.00;;;;;;4961549;28;20189;-70
2021/09/08 02:53:11;;;;;;;23.13;15.05;;;20.00;90.00;;;;;;4962477;28;20189;-70
2021/09/08 02:55:36;;;;;;;21.30;14.90;;;19.90;90.10;;;;;;4964986;28;20182;-71
2021/09/08 02:58:02;;;;;;;22.85;14.18;;;19.90;90.30;;;;;;4944547;28;20264;-70
2021/09/08 03:00:28;;;;;;;23.85;14.82;;;19.80;90.30;;;;;;4944385;28;20212;-70
2021/09/08 03:02:54;;;;;;;21.77;14.93;;;19.70;90.50;;;;;;4964337;28;20706;-71
2021/09/08 03:05:19;;;;;;;28.55;14.65;;;19.70;90.60;;;;;;4959567;28;20210;-70
2021/09/08 03:07:45;;;;;;;26.65;15.63;;;19.70;90.70;;;;;;4964923;28;20189;-71
2021/09/08 03:10:11;;;;;;;25.83;15.68;;;19.70;90.70;;;;;;4967559;28;20190;-71
2021/09/08 03:12:37;;;;;;;22.58;15.10;;;19.60;90.70;;;;;;4963063;28;20190;-70
2021/09/08 03:15:05;;;;;;;24.98;14.95;;;19.60;90.70;;;;;;4965133;28;20596;-70
2021/09/08 03:17:31;;;;;;;23.55;15.25;;;19.60;90.70;;;;;;4966905;28;20205;-71
2021/09/08 03:19:56;;;;;;;22.30;14.57;;;19.60;90.70;;;;;;4966838;28;20182;-70
2021/09/08 03:22:23;;;;;;;27.33;14.23;;;19.60;90.80;;;;;;4968815;28;20209;-70
2021/09/08 03:24:49;;;;;;;20.65;14.20;;;19.60;90.90;;;;;;4968989;28;20301;-70
2021/09/08 03:27:14;;;;;;;23.17;13.90;;;19.50;90.90;;;;;;4951409;28;20197;-70
2021/09/08 03:29:40;;;;;;;24.05;15.70;;;19.50;90.90;;;;;;4967029;28;20268;-71
2021/09/08 03:32:06;;;;;;;23.63;14.50;;;19.50;90.90;;;;;;4967380;28;20190;-70
2021/09/08 03:34:32;;;;;;;27.95;14.25;;;19.50;90.90;;;;;;4969334;28;20209;-71
2021/09/08 03:36:57;;;;;;;26.92;15.15;;;19.50;90.90;;;;;;4966277;28;20224;-71
2021/09/08 03:39:23;;;;;;;23.30;14.38;;;19.50;90.90;;;;;;4935391;28;20252;-70
2021/09/08 03:41:48;;;;;;;25.23;15.27;;;19.40;91.20;;;;;;4952036;28;20209;-70
2021/09/08 03:44:14;;;;;;;23.50;14.82;;;19.50;90.80;;;;;;4950730;28;20209;-70
2021/09/08 03:46:40;;;;;;;20.52;14.18;;;19.40;90.80;;;;;;4968252;28;20300;-70
2021/09/08 03:49:05;;;;;;;26.48;15.02;;;19.40;91.20;;;;;;4950248;28;20200;-69
2021/09/08 03:51:31;;;;;;;22.95;14.40;;;19.40;90.90;;;;;;4968518;28;20182;-70
2021/09/08 03:53:58;;;;;;;23.70;14.70;;;19.30;90.90;;;;;;4949987;28;20190;-69
2021/09/08 03:56:25;;;;;;;22.35;14.48;;;19.40;91.00;;;;;;4968083;28;20297;-68
2021/09/08 03:58:54;;;;;;;23.02;15.13;;;19.30;91.10;;;;;;4966087;28;20200;-70
2021/09/08 04:01:20;;;;;;;23.15;14.55;;;19.30;91.10;;;;;;4952225;28;20194;-70
2021/09/08 04:03:49;;;;;;;21.77;14.70;;;19.30;91.30;;;;;;4965881;28;20230;-70
2021/09/08 04:06:15;;;;;;;23.63;14.88;;;19.20;91.30;;;;;;4966113;28;20205;-71
2021/09/08 04:08:41;;;;;;;19.30;13.65;;;19.20;91.40;;;;;;4966704;28;20194;-70
2021/09/08 04:11:07;;;;;;;24.52;14.73;;;19.20;91.50;;;;;;4965567;28;20197;-70
2021/09/08 04:13:35;;;;;;;22.58;15.93;;;19.10;91.50;;;;;;4954507;28;20753;-70
2021/09/08 04:16:00;;;;;;;27.88;15.05;;;19.10;91.60;;;;;;4966301;28;20196;-70
2021/09/08 04:18:26;;;;;;;21.23;14.70;;;19.10;92.00;;;;;;4965222;28;20651;-69
2021/09/08 04:20:52;;;;;;;25.20;14.95;;;19.00;91.70;;;;;;4965529;28;20197;-69
2021/09/08 04:23:17;;;;;;;21.20;14.27;;;19.10;91.80;;;;;;4969593;28;20193;-68
2021/09/08 04:25:43;;;;;;;22.40;14.43;;;19.10;91.80;;;;;;4967062;28;20573;-68
2021/09/08 04:28:09;;;;;;;25.60;14.88;;;19.00;91.80;;;;;;4948983;28;20200;-69
2021/09/08 04:30:34;;;;;;;30.80;15.88;;;19.00;91.80;;;;;;4965267;28;20194;-68
2021/09/08 04:33:00;;;;;;;22.77;14.88;;;19.00;91.80;;;;;;4967880;28;20218;-68
2021/09/08 04:35:26;;;;;;;21.63;13.90;;;19.00;91.80;;;;;;4952832;28;20658;-68
2021/09/08 04:37:51;;;;;;;20.77;14.02;;;18.90;91.80;;;;;;4966383;28;20595;-68
2021/09/08 04:40:17;;;;;;;23.05;14.57;;;18.90;91.90;;;;;;4966247;28;20190;-68
2021/09/08 04:42:42;;;;;;;19.45;13.75;;;18.90;91.90;;;;;;4967176;28;20193;-68
2021/09/08 04:45:09;;;;;;;24.90;14.35;;;18.90;91.90;;;;;;4966025;28;20220;-68
2021/09/08 04:47:35;;;;;;;22.83;14.43;;;18.90;92.00;;;;;;4968021;28;20198;-68
2021/09/08 04:50:01;;;;;;;20.45;13.82;;;18.90;92.10;;;;;;4966071;28;20766;-68
2021/09/08 04:52:27;;;;;;;26.00;15.02;;;18.90;92.20;;;;;;4964434;28;20189;-70
2021/09/08 04:54:53;;;;;;;22.92;15.38;;;18.90;92.20;;;;;;4966537;28;20194;-70
2021/09/08 04:57:18;;;;;;;25.05;14.95;;;18.90;92.30;;;;;;4966536;28;20202;-70
2021/09/08 04:59:44;;;;;;;25.77;15.23;;;18.90;92.40;;;;;;4966292;28;20572;-70
2021/09/08 05:02:09;;;;;;;24.70;15.18;;;18.90;92.40;;;;;;4963265;28;20232;-69
2021/09/08 05:04:35;;;;;;;25.42;16.20;;;19.00;92.60;;;;;;4965204;28;20734;-69
2021/09/08 05:07:01;;;;;;;25.60;15.40;;;19.00;92.70;;;;;;4966215;28;20186;-70
2021/09/08 05:09:26;;;;;;;26.50;15.88;;;19.00;92.80;;;;;;4950393;28;20333;-70
2021/09/08 05:11:52;;;;;;;23.60;14.90;;;19.00;92.80;;;;;;4964304;28;20185;-71
2021/09/08 05:14:18;;;;;;;27.55;16.00;;;19.00;92.80;;;;;;4964934;28;20228;-69
2021/09/08 05:16:44;;;;;;;22.88;15.38;;;19.10;92.90;;;;;;4952658;28;20227;-71
2021/09/08 05:19:10;;;;;;;25.60;15.65;;;19.10;92.90;;;;;;4963652;28;20186;-69
2021/09/08 05:21:35;;;;;;;25.80;15.75;;;19.10;92.90;;;;;;4948469;28;20208;-70
2021/09/08 05:24:01;;;;;;;24.38;15.88;;;19.10;93.00;;;;;;4965479;28;20194;-70
2021/09/08 05:26:27;;;;;;;27.33;16.33;;;19.10;93.10;;;;;;4965462;28;20293;-69
2021/09/08 05:28:52;;;;;;;47.90;16.70;;;19.10;93.00;;;;;;4967447;28;20193;-70
2021/09/08 05:31:18;;;;;;;29.20;15.85;;;19.00;93.00;;;;;;4966246;28;20186;-70
2021/09/08 05:33:43;;;;;;;31.77;17.50;;;19.00;93.10;;;;;;4947913;28;20956;-70
2021/09/08 05:36:09;;;;;;;25.35;15.35;;;19.10;93.10;;;;;;4965753;28;20197;-70
2021/09/08 05:38:35;;;;;;;29.15;15.45;;;19.00;93.10;;;;;;4954840;28;20564;-69
2021/09/08 05:41:03;;;;;;;27.17;16.17;;;19.10;93.20;;;;;;4963615;28;20269;-69
2021/09/08 05:43:29;;;;;;;30.83;17.98;;;19.10;93.20;;;;;;4951123;28;20225;-69
2021/09/08 05:45:54;;;;;;;27.88;16.35;;;19.10;93.20;;;;;;4964490;28;20233;-70
2021/09/08 05:48:20;;;;;;;28.63;16.50;;;19.10;93.20;;;;;;4950321;28;20182;-69
2021/09/08 05:50:45;;;;;;;30.33;16.38;;;19.10;93.10;;;;;;4947886;28;20213;-69
2021/09/08 05:53:11;;;;;;;24.15;15.85;;;19.10;93.20;;;;;;4965033;28;20225;-69
2021/09/08 05:55:37;;;;;;;31.00;16.67;;;19.10;93.10;;;;;;4964709;28;20198;-69
2021/09/08 05:58:02;;;;;;;26.95;16.80;;;19.10;93.10;;;;;;4964417;28;20199;-69
2021/09/08 06:00:28;;;;;;;23.02;15.88;;;19.10;93.10;;;;;;4972010;28;20379;-71
2021/09/08 06:02:54;;;;;;;24.15;15.77;;;19.10;93.10;;;;;;4946905;28;20217;-70
2021/09/08 06:05:19;;;;;;;29.48;16.42;;;19.10;93.10;;;;;;4947745;28;20225;-69
2021/09/08 06:07:45;;;;;;;26.10;16.73;;;19.10;93.20;;;;;;4967938;28;20935;-70
2021/09/08 06:10:17;;;;;;;26.83;16.45;;;19.10;93.20;;;;;;4953921;28;20650;-72
2021/09/08 06:12:43;;;;;;;25.27;16.10;;;19.20;93.20;;;;;;4964656;28;20183;-70
2021/09/08 06:15:10;;;;;;;30.30;16.88;;;19.20;93.30;;;;;;4965852;28;20198;-72
2021/09/08 06:17:36;;;;;;;24.33;16.92;;;19.20;93.30;;;;;;4980183;28;20693;-72
2021/09/08 06:20:02;;;;;;;26.35;18.20;;;19.20;93.30;;;;;;4950509;28;20272;-71
2021/09/08 06:22:28;;;;;;;29.83;17.25;;;19.20;93.30;;;;;;4966146;28;20356;-70
2021/09/08 06:24:53;;;;;;;28.95;17.27;;;19.20;93.30;;;;;;4965673;28;20267;-69
2021/09/08 06:27:19;;;;;;;31.13;18.33;;;19.30;93.30;;;;;;4966476;28;20201;-70
2021/09/08 06:29:44;;;;;;;30.80;17.38;;;19.30;93.40;;;;;;4964417;28;20186;-70
2021/09/08 06:32:10;;;;;;;30.30;17.10;;;19.30;93.40;;;;;;4966231;28;20178;-71
2021/09/08 06:34:36;;;;;;;33.30;18.40;;;19.30;93.30;;;;;;4966991;28;20201;-69
2021/09/08 06:37:01;;;;;;;32.35;19.08;;;19.30;93.30;;;;;;4966216;28;20173;-68
2021/09/08 06:39:27;;;;;;;31.38;19.48;;;19.40;93.40;;;;;;4959339;28;20192;-70
2021/09/08 06:41:53;;;;;;;34.65;19.17;;;19.40;93.40;;;;;;4944929;28;20209;-70
2021/09/08 06:44:22;;;;;;;30.75;18.63;;;19.40;93.40;;;;;;4966707;28;20705;-69
2021/09/08 06:46:48;;;;;;;32.47;19.05;;;19.40;93.40;;;;;;4949558;28;20213;-69
2021/09/08 06:49:14;;;;;;;33.42;20.10;;;19.50;93.50;;;;;;4964642;28;20330;-70
2021/09/08 06:51:39;;;;;;;28.20;17.48;;;19.50;93.40;;;;;;4970397;28;20662;-68
2021/09/08 06:54:05;;;;;;;29.08;18.27;;;19.50;93.40;;;;;;4965543;28;20189;-69
2021/09/08 06:56:31;;;;;;;29.20;17.48;;;19.50;93.40;;;;;;4954271;28;20204;-68
2021/09/08 06:58:56;;;;;;;27.10;17.38;;;19.60;93.40;;;;;;4963117;28;20654;-69
2021/09/08 07:01:22;;;;;;;29.02;18.17;;;19.60;93.40;;;;;;4968033;28;20252;-69
2021/09/08 07:03:48;;;;;;;30.10;18.67;;;19.60;93.40;;;;;;4967509;28;20706;-69
2021/09/08 07:06:13;;;;;;;29.60;19.10;;;19.70;93.40;;;;;;4950827;28;20220;-69
2021/09/08 07:08:39;;;;;;;27.52;17.70;;;19.70;93.40;;;;;;4967835;28;20194;-71
2021/09/08 07:11:04;;;;;;;31.02;18.67;;;19.70;93.30;;;;;;4951472;28;20190;-69
2021/09/08 07:13:30;;;;;;;27.50;18.63;;;19.80;93.30;;;;;;4968607;28;20535;-69
2021/09/08 07:15:56;;;;;;;28.27;18.15;;;19.80;93.20;;;;;;4969242;28;20190;-69
2021/09/08 07:18:21;;;;;;;31.20;18.20;;;19.80;93.20;;;;;;4965914;28;20193;-71
2021/09/08 07:20:47;;;;;;;29.08;17.83;;;19.90;93.20;;;;;;4965499;28;20205;-70
2021/09/08 07:23:12;;;;;;;30.67;17.55;;;19.90;93.20;;;;;;4967834;28;20774;-69
2021/09/08 07:25:38;;;;;;;24.35;16.13;;;20.00;93.20;;;;;;4949257;28;20251;-68
2021/09/08 07:28:04;;;;;;;31.73;15.88;;;20.00;93.00;;;;;;4953583;28;20854;-70
2021/09/08 07:30:32;;;;;;;28.63;17.38;;;20.00;92.90;;;;;;4951847;28;20659;-69
2021/09/08 07:32:57;;;;;;;32.47;18.60;;;20.10;92.80;;;;;;4966249;28;20198;-68
2021/09/08 07:35:23;;;;;;;30.42;16.95;;;20.20;92.70;;;;;;4967207;28;20677;-68
2021/09/08 07:37:49;;;;;;;29.27;17.15;;;20.20;92.50;;;;;;4967094;28;20219;-71
2021/09/08 07:40:15;;;;;;;32.47;17.48;;;20.20;92.40;;;;;;4968271;28;20213;-69
2021/09/08 07:42:41;;;;;;;22.88;15.63;;;20.30;92.30;;;;;;4969109;28;20193;-69
2021/09/08 07:45:07;;;;;;;30.30;16.73;;;20.30;92.10;;;;;;4968220;28;20214;-69
2021/09/08 07:47:33;;;;;;;26.48;17.08;;;20.40;91.90;;;;;;4966171;28;20205;-68
2021/09/08 07:49:58;;;;;;;21.33;13.55;;;20.40;91.80;;;;;;4967325;28;20270;-70
2021/09/08 07:52:24;;;;;;;29.23;16.05;;;20.50;91.70;;;;;;4967249;28;20190;-69
2021/09/08 07:54:50;;;;;;;29.02;16.90;;;20.50;91.50;;;;;;4967478;28;20193;-69
2021/09/08 07:57:16;;;;;;;24.10;16.05;;;20.60;91.50;;;;;;4968622;28;20191;-69
2021/09/08 07:59:41;;;;;;;26.60;15.75;;;20.70;91.70;;;;;;4968149;28;20599;-70
2021/09/08 08:02:07;;;;;;;25.70;16.48;;;20.70;91.20;;;;;;4967401;28;20269;-69
2021/09/08 08:04:32;;;;;;;25.50;15.73;;;20.70;91.10;;;;;;4971422;28;20240;-69
2021/09/08 08:06:58;;;;;;;22.77;13.70;;;20.80;91.10;;;;;;4974860;28;20210;-72
2021/09/08 08:09:24;;;;;;;21.65;14.75;;;20.90;90.90;;;;;;4949700;28;20197;-69
2021/09/08 08:11:49;;;;;;;22.38;12.88;;;21.00;90.70;;;;;;4967156;28;20656;-68
2021/09/08 08:14:16;;;;;;;23.63;15.95;;;21.00;90.50;;;;;;4966560;28;20182;-69
2021/09/08 08:16:42;;;;;;;21.52;14.98;;;21.10;90.40;;;;;;4969290;28;20558;-68
2021/09/08 08:19:08;;;;;;;24.25;14.40;;;21.20;90.30;;;;;;4968392;28;20235;-67
2021/09/08 08:21:34;;;;;;;23.80;13.88;;;21.30;90.20;;;;;;4967857;28;20938;-69
2021/09/08 08:24:00;;;;;;;26.45;15.35;;;21.40;90.10;;;;;;4967795;28;20193;-69
2021/09/08 08:26:26;;;;;;;21.35;14.23;;;21.50;90.00;;;;;;4955018;28;20226;-69
2021/09/08 08:28:52;;;;;;;25.15;15.23;;;21.60;89.80;;;;;;4966406;28;20190;-69
2021/09/08 08:31:18;;;;;;;23.25;14.77;;;21.80;89.40;;;;;;4964900;28;20189;-68
2021/09/08 08:33:46;;;;;;;22.48;15.23;;;21.90;88.90;;;;;;4966924;28;20185;-68
2021/09/08 08:36:12;;;;;;;;;;;22.00;88.40;;;;;;4966471;28;20682;-69
2021/09/08 08:38:40;;;;;;;22.15;14.82;;;22.20;87.90;;;;;;4973153;28;20517;-68
2021/09/08 08:41:05;;;;;;;23.77;13.82;;;22.30;87.50;;;;;;4966260;28;20225;-69
2021/09/08 08:43:32;;;;;;;23.73;15.18;;;22.40;87.30;;;;;;4967454;28;20272;-74
2021/09/08 08:45:58;;;;;;;22.55;13.93;;;22.60;87.30;;;;;;4951185;28;20300;-69
2021/09/08 08:48:24;;;;;;;22.95;13.82;;;22.90;86.80;;;;;;4965873;28;20633;-68
2021/09/08 08:50:52;;;;;;;;;;;23.20;86.10;;;;;;4948889;28;20052;-68
2021/09/08 08:53:17;;;;;;;;;;;23.60;84.90;;;;;;4965131;28;19958;-67
2021/09/08 08:55:43;;;;;;;;;;;23.90;83.00;;;;;;4936338;28;20414;-66
2021/09/08 08:58:09;;;;;;;;;;;24.30;81.20;;;;;;4966931;28;19952;-68
2021/09/08 09:00:35;;;;;;;;;;;24.60;80.10;;;;;;4966720;28;20524;-66
2021/09/08 09:03:01;;;;;;;17.80;12.07;;;24.90;78.90;;;;;;4968488;28;20199;-68
2021/09/08 09:05:28;;;;;;;16.95;10.85;;;25.20;77.30;;;;;;4966942;28;20225;-69
2021/09/08 09:07:54;;;;;;;19.15;11.43;;;25.50;75.40;;;;;;4966970;28;20190;-68
2021/09/08 09:10:20;;;;;;;19.15;12.32;;;25.70;74.40;;;;;;4967228;28;20186;-68
2021/09/08 09:12:46;;;;;;;18.20;11.15;;;25.90;73.60;;;;;;4967471;28;20186;-70
2021/09/08 09:15:15;;;;;;;18.55;11.15;;;26.10;72.80;;;;;;4966993;28;20190;-76
2021/09/08 09:17:41;;;;;;;18.95;11.13;;;26.30;71.90;;;;;;4934873;28;20200;-72
2021/09/08 09:20:13;;;;;;;19.15;12.02;;;26.40;70.90;;;;;;4957141;28;20192;-74
2021/09/08 09:22:47;;;;;;;19.35;10.38;;;26.60;70.00;;;;;;4966318;28;20691;-73
2021/09/08 09:25:16;;;;;;;16.73;11.40;;;26.70;69.40;;;;;;4973745;28;20232;-75
2021/09/08 09:27:51;;;;;;;15.88;11.38;;;26.80;68.40;;;;;;4967052;28;20273;-70
2021/09/08 09:30:24;;;;;;;16.35;10.07;;;27.00;67.70;;;;;;4972502;28;20181;-70
2021/09/08 09:32:51;;;;;;;16.67;10.60;;;27.10;67.50;;;;;;4969424;28;20199;-73
2021/09/08 09:35:19;;;;;;;19.40;11.23;;;27.20;66.70;;;;;;4970386;28;20197;-73
2021/09/08 09:37:53;;;;;;;17.20;10.48;;;27.30;66.00;;;;;;4969837;28;20277;-71
2021/09/08 09:40:26;;;;;;;19.73;9.70;;;27.40;65.20;;;;;;4966552;28;20197;-69
2021/09/08 09:42:52;;;;;;;;;;;27.50;64.60;;;;;;4967065;28;20273;-73
2021/09/08 09:45:18;;;;;;;;;;;27.70;64.00;;;;;;4965189;28;19941;-73
2021/09/08 09:47:45;;;;;;;;;;;28.00;64.20;;;;;;4969380;28;19914;-74
2021/09/08 09:50:17;;;;;;;17.08;8.27;;;28.30;64.00;;;;;;4969917;28;19914;-70
2021/09/08 09:52:51;;;;;;;13.18;9.75;;;28.90;62.80;;;;;;4965228;28;20194;-69
2021/09/08 09:55:18;;;;;;;;;;;29.60;60.00;;;;;;4967205;28;20512;-75
2021/09/08 09:57:44;;;;;;;13.95;10.10;;;30.50;57.80;;;;;;4966380;28;20183;-72
2021/09/08 10:00:11;;;;;;;12.75;8.70;;;31.10;55.40;;;;;;4967553;28;20564;-75
2021/09/08 10:02:39;;;;;;;;;;;31.60;54.00;;;;;;4969269;28;20558;-74
2021/09/08 10:05:06;;;;;;;;;;;32.30;52.60;;;;;;4948442;28;20323;-71
2021/09/08 10:07:33;;;;;;;;;;;33.00;50.50;;;;;;4967792;28;20281;-74
2021/09/08 10:10:05;;;;;;;14.95;8.35;;;33.70;48.20;;;;;;4950498;28;20109;-68
2021/09/08 10:12:40;;;;;;;10.43;7.88;;;34.20;45.90;;;;;;4964444;28;20757;-69
2021/09/08 10:15:07;;;;;;;18.73;8.02;;;34.80;44.80;;;;;;4967662;28;20200;-69
2021/09/08 10:17:43;;;;;;;12.52;8.27;;;35.40;43.60;;;;;;4967819;28;20191;-71
2021/09/08 10:20:11;;;;;;;11.43;8.00;;;35.90;41.80;;;;;;4968654;28;20193;-68
2021/09/08 10:22:42;;;;;;;;;;;36.00;40.90;;;;;;4976041;28;20280;-73
2021/09/08 10:25:15;;;;;;;;;;;35.70;40.70;;;;;;4968598;28;20324;-72
2021/09/08 10:27:41;;;;;;;;;;;35.40;40.50;;;;;;4973615;28;19998;-69
2021/09/08 10:30:08;;;;;;;;;;;35.30;40.70;;;;;;4973112;28;19918;-74
2021/09/08 10:32:33;;;;;;;;;;;35.40;40.20;;;;;;4952293;28;19940;-70
2021/09/08 10:35:08;;;;;;;9.45;7.00;;;35.90;39.20;;;;;;4971162;28;20824;-70
2021/09/08 10:37:34;;;;;;;10.48;6.78;;;36.60;37.80;;;;;;4967697;28;20197;-77
2021/09/08 10:39:59;;;;;;;10.00;7.07;;;37.20;37.00;;;;;;4968741;28;20729;-72
2021/09/08 10:42:46;;;;;;;;;;;37.70;36.30;;;;;;4955120;28;20173;-73
2021/09/08 10:45:18;;;;;;;;;;;38.30;34.90;;;;;;4927955;28;20656;-69
2021/09/08 10:47:44;;;;;;;10.57;7.00;;;38.80;34.00;;;;;;4968653;28;20159;-71
2021/09/08 10:50:10;;;;;;;9.32;6.60;;;39.20;33.20;;;;;;4968700;28;20189;-70
2021/09/08 10:52:36;;;;;;;8.85;7.00;;;39.60;32.80;;;;;;4970564;28;20759;-70
2021/09/08 10:55:02;;;;;;;10.98;6.93;;;40.00;32.30;;;;;;4952092;28;20233;-70
2021/09/08 10:57:47;;;;;;;8.88;6.50;;;40.30;31.70;;;;;;4968586;28;20220;-68
2021/09/08 11:00:12;;;;;;;10.98;7.00;;;40.60;31.50;;;;;;4954957;28;20255;-68
2021/09/08 11:02:39;;;;;;;10.40;7.28;;;40.90;30.80;;;;;;4967835;28;20234;-70
2021/09/08 11:05:05;;;;;;;12.23;7.32;;;41.10;30.40;;;;;;4967143;28;20201;-68
2021/09/08 11:07:31;;;;;;;9.23;6.90;;;41.30;30.10;;;;;;4968265;28;20189;-69
2021/09/08 11:09:56;;;;;;;10.80;7.38;;;41.60;30.00;;;;;;4977714;28;20189;-73
2021/09/08 11:12:22;;;;;;;13.07;7.63;;;41.60;29.40;;;;;;4969601;28;20189;-72
2021/09/08 11:14:52;;;;;;;11.20;7.10;;;41.50;29.50;;;;;;4966777;28;20186;-69
2021/09/08 11:17:24;;;;;;;;;;;41.70;29.50;;;;;;4948278;28;20252;-68
2021/09/08 11:19:59;;;;;;;11.40;7.95;;;42.00;29.20;;;;;;4956124;28;20231;-69
2021/09/08 11:22:25;;;;;;;8.90;7.28;;;42.10;29.20;;;;;;4971122;28;20194;-68
2021/09/08 11:25:04;;;;;;;11.95;6.80;;;42.40;29.10;;;;;;4966352;28;20181;-68
2021/09/08 11:27:30;;;;;;;12.07;7.07;;;42.50;28.80;;;;;;4966215;28;20193;-74
2021/09/08 11:30:07;;;;;;;10.60;6.88;;;42.80;28.40;;;;;;4954443;28;20252;-76
2021/09/08 11:32:53;;;;;;;15.25;7.63;;;42.90;28.10;;;;;;4964761;28;20189;-69
2021/09/08 11:35:45;;;;;;;12.63;6.95;;;43.10;27.80;;;;;;4948351;28;20196;-68
2021/09/08 11:38:20;;;;;;;11.82;7.55;;;43.10;27.60;;;;;;4966930;28;20232;-69
2021/09/08 11:40:52;;;;;;;10.25;6.85;;;43.00;27.60;;;;;;4964401;28;20203;-70
2021/09/08 11:43:37;;;;;;;10.88;7.03;;;42.90;27.60;;;;;;4976569;28;20216;-69
2021/09/08 11:46:18;;;;;;;15.20;7.30;;;43.00;28.00;;;;;;4964722;28;20213;-72
2021/09/08 11:48:46;;;;;;;11.82;7.75;;;43.10;27.80;;;;;;4949554;28;20196;-70
2021/09/08 11:51:14;;;;;;;8.80;7.22;;;43.30;27.80;;;;;;4956924;28;20181;-69
2021/09/08 11:53:40;;;;;;;9.60;7.10;;;43.40;27.70;;;;;;4975192;28;20193;-69
2021/09/08 11:56:08;;;;;;;9.88;7.00;;;43.50;27.60;;;;;;4969435;28;20211;-69
2021/09/08 11:58:34;;;;;;;11.43;7.65;;;43.60;27.70;;;;;;4965634;28;20195;-69
2021/09/08 12:01:09;;;;;;;12.93;7.63;;;43.60;27.50;;;;;;4965620;28;20186;-72
2021/09/08 12:03:41;;;;;;;9.10;6.88;;;43.60;26.90;;;;;;4962896;28;20837;-70
2021/09/08 12:06:12;;;;;;;11.25;7.80;;;45.60;25.10;;;;;;4968456;28;22448;-70
2021/09/08 12:08:50;;;;;;;15.25;7.40;;;46.30;23.30;;;;;;4948920;28;20526;-69
2021/09/08 12:11:53;;;;;;;10.82;7.60;;;46.10;23.50;;;;;;4967263;28;20415;-69
2021/09/08 12:14:23;;;;;;;11.85;7.43;;;45.90;24.30;;;;;;4935410;28;20538;-71
2021/09/08 12:16:51;;;;;;;18.40;8.23;;;45.80;24.30;;;;;;4965528;28;20429;-72
2021/09/08 12:19:24;;;;;;;13.23;7.65;;;45.70;23.90;;;;;;4967531;28;20516;-70
2021/09/08 12:21:50;;;;;;;14.82;7.70;;;45.40;23.70;;;;;;4968104;28;21053;-71
2021/09/08 12:24:28;;;;;;;11.10;7.67;;;45.00;24.20;;;;;;4964480;28;20427;-71
2021/09/08 12:26:55;;;;;;;11.18;7.25;;;44.80;24.30;;;;;;4943523;28;22286;-72
2021/09/08 12:29:21;;;;;;;12.43;7.90;;;44.70;24.20;;;;;;4968149;28;20421;-71
2021/09/08 12:32:00;;;;;;;14.02;7.78;;;44.40;24.40;;;;;;4969802;28;20478;-70
2021/09/08 12:34:45;;;;;;;9.13;7.32;;;44.30;25.00;;;;;;4962951;28;20451;-72
2021/09/08 12:37:12;;;;;;;10.93;7.30;;;44.30;24.60;;;;;;4964496;28;20424;-71